createdAt,value
2018-09-09T00:00:05.843Z,95203.08
2018-09-09T00:02:36.339Z,95200.87
2018-09-09T00:05:05.369Z,95202.38
2018-09-09T00:07:34.162Z,95200.20
2018-09-09T00:10:02.992Z,95191.92
2018-09-09T00:12:31.763Z,95198.45
2018-09-09T00:15:00.588Z,95199.48
2018-09-09T00:17:29.351Z,95192.79
2018-09-09T00:19:58.152Z,95193.55
2018-09-09T00:22:26.943Z,95195.45
2018-09-09T00:24:55.703Z,95193.08
2018-09-09T00:27:24.488Z,95193.91
2018-09-09T00:29:53.284Z,95196.84
2018-09-09T00:32:22.131Z,95194.53
2018-09-09T00:34:50.883Z,95195.50
2018-09-09T00:37:19.658Z,95199.48
2018-09-09T00:39:48.508Z,95204.22
2018-09-09T00:42:17.335Z,95209.82
2018-09-09T00:44:46.175Z,95196.48
2018-09-09T00:47:14.926Z,95204.73
2018-09-09T00:49:49.054Z,95202.66
2018-09-09T00:52:23.164Z,95207.63
2018-09-09T00:54:51.971Z,95207.56
2018-09-09T00:57:20.793Z,95211.48
2018-09-09T00:59:49.583Z,95209.35
2018-09-09T01:02:18.385Z,95206.41
2018-09-09T01:04:47.192Z,95205.28
2018-09-09T01:07:16.041Z,95199.53
2018-09-09T01:09:44.823Z,95200.39
2018-09-09T01:12:13.784Z,95191.93
2018-09-09T01:14:42.819Z,95195.78
2018-09-09T01:17:11.596Z,95197.31
2018-09-09T01:19:40.403Z,95200.29
2018-09-09T01:22:09.183Z,95197.31
2018-09-09T01:24:37.963Z,95196.74
2018-09-09T01:27:06.787Z,95197.81
2018-09-09T01:29:35.620Z,95195.05
2018-09-09T01:32:04.426Z,95200.00
2018-09-09T01:34:33.191Z,95200.17
2018-09-09T01:37:01.947Z,95204.73
2018-09-09T01:39:30.760Z,95194.03
2018-09-09T01:41:59.528Z,95200.27
2018-09-09T01:44:28.342Z,95202.12
2018-09-09T01:46:57.166Z,95202.41
2018-09-09T01:49:25.971Z,95197.73
2018-09-09T01:51:54.784Z,95203.33
2018-09-09T01:54:23.605Z,95196.42
2018-09-09T01:56:52.410Z,95196.95
2018-09-09T01:59:21.222Z,95192.42
2018-09-09T02:01:50.008Z,95196.29
2018-09-09T02:04:18.830Z,95197.84
2018-09-09T02:06:47.644Z,95206.10
2018-09-09T02:09:16.423Z,95206.16
2018-09-09T02:11:45.289Z,95207.20
2018-09-09T02:14:14.097Z,95206.59
2018-09-09T02:16:42.931Z,95208.44
2018-09-09T02:19:11.790Z,95209.37
2018-09-09T02:21:40.629Z,95210.61
2018-09-09T02:24:09.401Z,95213.06
2018-09-09T02:26:38.263Z,95216.50
2018-09-09T02:29:07.129Z,95215.11
2018-09-09T02:31:35.898Z,95220.36
2018-09-09T02:34:04.772Z,95213.20
2018-09-09T02:36:33.571Z,95216.20
2018-09-09T02:39:02.404Z,95218.57
2018-09-09T02:41:31.192Z,95214.47
2018-09-09T02:44:00.011Z,95211.88
2018-09-09T02:46:28.808Z,95212.34
2018-09-09T02:48:57.624Z,95214.73
2018-09-09T02:51:26.620Z,95211.81
2018-09-09T02:53:55.448Z,95205.45
2018-09-09T02:56:24.224Z,95209.54
2018-09-09T02:58:53.013Z,95207.37
2018-09-09T03:01:21.805Z,95209.91
2018-09-09T03:03:50.676Z,95209.05
2018-09-09T03:06:19.691Z,95209.77
2018-09-09T03:08:48.476Z,95213.22
2018-09-09T03:11:17.261Z,95203.81
2018-09-09T03:13:46.737Z,95202.75
2018-09-09T03:16:15.496Z,95200.98
2018-09-09T03:18:44.356Z,95204.25
2018-09-09T03:21:20.250Z,95208.85
2018-09-09T03:23:49.336Z,95210.17
2018-09-09T03:26:18.124Z,95208.33
2018-09-09T03:28:47.041Z,95203.26
2018-09-09T03:31:15.962Z,95206.63
2018-09-09T03:33:44.759Z,95209.08
2018-09-09T03:36:13.598Z,95209.37
2018-09-09T03:38:42.739Z,95205.91
2018-09-09T03:41:11.527Z,95215.09
2018-09-09T03:43:40.299Z,95216.19
2018-09-09T03:46:09.186Z,95218.88
2018-09-09T03:48:37.982Z,95224.02
2018-09-09T03:51:06.804Z,95222.23
2018-09-09T03:53:35.603Z,95217.52
2018-09-09T03:56:04.387Z,95218.42
2018-09-09T03:58:33.219Z,95219.16
2018-09-09T04:01:02.119Z,95222.02
2018-09-09T04:03:30.912Z,95223.05
2018-09-09T04:05:59.750Z,95228.58
2018-09-09T04:08:28.560Z,95230.28
2018-09-09T04:10:57.390Z,95227.19
2018-09-09T04:13:26.218Z,95229.31
2018-09-09T04:15:55.019Z,95234.03
2018-09-09T04:18:23.761Z,95237.23
2018-09-09T04:20:52.574Z,95232.08
2018-09-09T04:23:21.407Z,95238.94
2018-09-09T04:25:50.197Z,95242.28
2018-09-09T04:28:18.978Z,95244.52
2018-09-09T04:30:47.802Z,95248.56
2018-09-09T04:33:16.763Z,95247.66
2018-09-09T04:35:45.519Z,95254.06
2018-09-09T04:38:14.296Z,95251.52
2018-09-09T04:40:43.058Z,95253.59
2018-09-09T04:43:11.826Z,95252.20
2018-09-09T04:45:40.632Z,95250.65
2018-09-09T04:48:09.424Z,95253.88
2018-09-09T04:50:38.316Z,95259.27
2018-09-09T04:53:07.193Z,95266.53
2018-09-09T04:55:36.044Z,95268.96
2018-09-09T04:58:04.877Z,95265.00
2018-09-09T05:00:33.934Z,95273.59
2018-09-09T05:03:02.741Z,95274.35
2018-09-09T05:05:31.576Z,95273.31
2018-09-09T05:08:00.331Z,95273.59
2018-09-09T05:10:29.245Z,95277.88
2018-09-09T05:12:58.034Z,95273.08
2018-09-09T05:15:26.857Z,95273.36
2018-09-09T05:17:55.640Z,95275.45
2018-09-09T05:20:24.532Z,95279.77
2018-09-09T05:22:53.323Z,95282.72
2018-09-09T05:25:22.159Z,95285.03
2018-09-09T05:27:50.985Z,95283.36
2018-09-09T05:30:19.808Z,95287.56
2018-09-09T05:32:48.615Z,95294.77
2018-09-09T05:35:17.368Z,95288.48
2018-09-09T05:37:46.166Z,95296.17
2018-09-09T05:40:14.946Z,95285.66
2018-09-09T05:42:43.703Z,95290.00
2018-09-09T05:45:12.487Z,95289.77
2018-09-09T05:47:41.302Z,95287.74
2018-09-09T05:50:10.167Z,95290.48
2018-09-09T05:52:38.975Z,95286.55
2018-09-09T05:55:08.199Z,95292.45
2018-09-09T05:57:36.943Z,95287.84
2018-09-09T06:00:07.026Z,95297.55
2018-09-09T06:02:35.796Z,95295.23
2018-09-09T06:05:04.850Z,95297.65
2018-09-09T06:07:33.639Z,95295.63
2018-09-09T06:10:02.415Z,95300.77
2018-09-09T06:12:31.181Z,95303.20
2018-09-09T06:14:59.976Z,95298.52
2018-09-09T06:17:28.720Z,95297.52
2018-09-09T06:19:57.531Z,95305.37
2018-09-09T06:22:26.289Z,95305.70
2018-09-09T06:24:55.081Z,95312.74
2018-09-09T06:27:23.943Z,95308.99
2018-09-09T06:29:52.679Z,95314.52
2018-09-09T06:32:21.440Z,95311.63
2018-09-09T06:34:50.211Z,95305.11
2018-09-09T06:37:19.026Z,95313.95
2018-09-09T06:39:47.811Z,95319.28
2018-09-09T06:42:16.579Z,95321.47
2018-09-09T06:44:45.298Z,95315.15
2018-09-09T06:47:14.069Z,95311.81
2018-09-09T06:49:42.876Z,95315.42
2018-09-09T06:52:11.780Z,95323.02
2018-09-09T06:54:40.556Z,95313.86
2018-09-09T06:57:09.304Z,95317.23
2018-09-09T06:59:38.049Z,95319.13
2018-09-09T07:02:06.879Z,95321.08
2018-09-09T07:04:35.725Z,95320.06
2018-09-09T07:07:04.560Z,95315.30
2018-09-09T07:09:33.319Z,95321.25
2018-09-09T07:12:02.185Z,95310.91
2018-09-09T07:14:31.147Z,95314.63
2018-09-09T07:16:59.964Z,95306.16
2018-09-09T07:19:28.960Z,95303.98
2018-09-09T07:21:57.739Z,95312.09
2018-09-09T07:24:26.810Z,95310.55
2018-09-09T07:26:55.624Z,95316.00
2018-09-09T07:29:25.123Z,95314.75
2018-09-09T07:31:54.022Z,95304.61
2018-09-09T07:34:23.000Z,95310.05
2018-09-09T07:36:51.972Z,95310.66
2018-09-09T07:39:20.805Z,95319.88
2018-09-09T07:41:49.594Z,95312.78
2018-09-09T07:44:18.387Z,95309.95
2018-09-09T07:46:47.225Z,95315.97
2018-09-09T07:49:15.964Z,95312.05
2018-09-09T07:51:44.855Z,95312.66
2018-09-09T07:54:13.684Z,95305.02
2018-09-09T07:56:42.504Z,95317.16
2018-09-09T07:59:11.398Z,95319.89
2018-09-09T08:01:40.211Z,95305.75
2018-09-09T08:04:08.999Z,95311.64
2018-09-09T08:06:37.790Z,95313.20
2018-09-09T08:09:08.376Z,95308.93
2018-09-09T08:11:37.189Z,95303.19
2018-09-09T08:14:07.436Z,95305.41
2018-09-09T08:16:36.365Z,95305.96
2018-09-09T08:19:05.753Z,95305.69
2018-09-09T08:21:35.208Z,95294.72
2018-09-09T08:24:04.197Z,95293.66
2018-09-09T08:26:32.951Z,95292.88
2018-09-09T08:29:01.781Z,95301.52
2018-09-09T08:31:30.528Z,95294.48
2018-09-09T08:33:59.353Z,95292.55
2018-09-09T08:36:28.135Z,95290.67
2018-09-09T08:38:56.956Z,95296.56
2018-09-09T08:41:25.716Z,95289.06
2018-09-09T08:43:54.494Z,95284.00
2018-09-09T08:46:23.278Z,95287.48
2018-09-09T08:48:52.048Z,95284.55
2018-09-09T08:51:20.850Z,95285.92
2018-09-09T08:53:50.262Z,95281.39
2018-09-09T08:56:19.102Z,95280.33
2018-09-09T08:58:50.778Z,95275.32
2018-09-09T09:01:19.961Z,95267.30
2018-09-09T09:03:48.806Z,95263.61
2018-09-09T09:06:17.644Z,95267.63
2018-09-09T09:08:46.599Z,95257.49
2018-09-09T09:11:15.596Z,95252.63
2018-09-09T09:13:44.455Z,95255.59
2018-09-09T09:16:13.235Z,95252.66
2018-09-09T09:18:42.080Z,95250.76
2018-09-09T09:21:10.995Z,95253.44
2018-09-09T09:23:39.859Z,95244.88
2018-09-09T09:26:08.778Z,95245.96
2018-09-09T09:28:37.533Z,95240.30
2018-09-09T09:31:06.573Z,95238.88
2018-09-09T09:33:35.337Z,95227.36
2018-09-09T09:36:04.209Z,95237.84
2018-09-09T09:38:32.988Z,95229.87
2018-09-09T09:41:01.808Z,95234.95
2018-09-09T09:43:30.598Z,95238.45
2018-09-09T09:45:59.379Z,95239.27
2018-09-09T09:48:29.163Z,95234.73
2018-09-09T09:50:57.916Z,95226.96
2018-09-09T09:53:26.790Z,95225.34
2018-09-09T09:55:55.708Z,95217.55
2018-09-09T09:58:24.466Z,95223.20
2018-09-09T10:00:59.179Z,95214.09
2018-09-09T10:03:28.074Z,95214.09
2018-09-09T10:05:56.971Z,95204.44
2018-09-09T10:08:25.824Z,95201.47
2018-09-09T10:10:54.964Z,95198.48
2018-09-09T10:13:23.780Z,95205.62
2018-09-09T10:15:52.536Z,95202.66
2018-09-09T10:18:21.293Z,95200.02
2018-09-09T10:20:50.063Z,95190.55
2018-09-09T10:23:18.837Z,95187.48
2018-09-09T10:25:47.629Z,95176.88
2018-09-09T10:28:16.458Z,95184.69
2018-09-09T10:30:45.276Z,95176.95
2018-09-09T10:33:14.088Z,95178.13
2018-09-09T10:35:42.832Z,95173.04
2018-09-09T10:38:11.696Z,95170.36
2018-09-09T10:40:40.537Z,95174.58
2018-09-09T10:43:09.320Z,95176.65
2018-09-09T10:45:38.109Z,95170.72
2018-09-09T10:48:07.000Z,95174.20
2018-09-09T10:50:35.851Z,95174.61
2018-09-09T10:53:04.668Z,95168.66
2018-09-09T10:55:33.592Z,95167.00
2018-09-09T10:58:02.364Z,95160.03
2018-09-09T11:00:31.131Z,95164.46
2018-09-09T11:02:59.888Z,95150.91
2018-09-09T11:05:28.660Z,95159.16
2018-09-09T11:07:57.424Z,95145.00
2018-09-09T11:10:26.223Z,95147.74
2018-09-09T11:12:55.092Z,95144.45
2018-09-09T11:15:24.032Z,95142.98
2018-09-09T11:17:52.859Z,95139.03
2018-09-09T11:20:21.744Z,95148.98
2018-09-09T11:22:50.908Z,95166.23
2018-09-09T11:25:19.716Z,95172.12
2018-09-09T11:27:48.515Z,95170.91
2018-09-09T11:30:17.315Z,95180.44
2018-09-09T11:32:46.154Z,95193.73
2018-09-09T11:35:14.924Z,95159.70
2018-09-09T11:37:43.695Z,95149.91
2018-09-09T11:40:12.456Z,95141.51
2018-09-09T11:42:41.260Z,95141.73
2018-09-09T11:45:10.106Z,95140.78
2018-09-09T11:47:38.924Z,95143.79
2018-09-09T11:50:08.098Z,95147.07
2018-09-09T11:52:36.844Z,95141.77
2018-09-09T11:55:05.680Z,95152.47
2018-09-09T11:57:34.433Z,95175.29
2018-09-09T12:00:04.730Z,95161.75
2018-09-09T12:02:33.504Z,95158.20
2018-09-09T12:05:02.274Z,95142.52
2018-09-09T12:07:31.132Z,95151.03
2018-09-09T12:10:00.103Z,95137.29
2018-09-09T12:12:29.092Z,95144.98
2018-09-09T12:14:59.007Z,95143.89
2018-09-09T12:17:27.819Z,95141.14
2018-09-09T12:19:56.589Z,95133.30
2018-09-09T12:22:25.352Z,95131.53
2018-09-09T12:24:54.170Z,95121.84
2018-09-09T12:27:22.942Z,95120.41
2018-09-09T12:29:51.763Z,95128.70
2018-09-09T12:32:20.601Z,95127.28
2018-09-09T12:34:49.584Z,95122.66
2018-09-09T12:37:18.381Z,95126.19
2018-09-09T12:39:47.228Z,95125.16
2018-09-09T12:42:16.023Z,95128.83
2018-09-09T12:44:50.077Z,95124.23
2018-09-09T12:47:24.754Z,95143.41
2018-09-09T12:49:54.048Z,95162.40
2018-09-09T12:52:22.904Z,95172.26
2018-09-09T12:54:51.724Z,95174.67
2018-09-09T12:57:20.534Z,95168.83
2018-09-09T12:59:49.364Z,95161.22
2018-09-09T13:02:18.162Z,95151.41
2018-09-09T13:04:46.930Z,95146.03
2018-09-09T13:07:18.703Z,95147.06
2018-09-09T13:09:47.631Z,95144.34
2018-09-09T13:12:16.411Z,95146.82
2018-09-09T13:14:45.244Z,95145.97
2018-09-09T13:17:14.068Z,95142.14
2018-09-09T13:19:42.884Z,95143.34
2018-09-09T13:22:11.669Z,95150.62
2018-09-09T13:24:40.447Z,95144.48
2018-09-09T13:27:09.278Z,95150.66
2018-09-09T13:29:38.099Z,95152.53
2018-09-09T13:32:06.915Z,95156.54
2018-09-09T13:34:35.733Z,95168.73
2018-09-09T13:37:04.529Z,95161.02
2018-09-09T13:39:33.353Z,95168.17
2018-09-09T13:42:02.471Z,95164.69
2018-09-09T13:44:31.677Z,95167.38
2018-09-09T13:47:00.547Z,95171.38
2018-09-09T13:49:29.408Z,95163.64
2018-09-09T13:51:58.957Z,95152.85
2018-09-09T13:54:27.785Z,95152.80
2018-09-09T13:56:56.588Z,95149.87
2018-09-09T13:59:25.352Z,95144.55
2018-09-09T14:01:54.223Z,95139.45
2018-09-09T14:04:22.962Z,95141.62
2018-09-09T14:06:51.891Z,95145.16
2018-09-09T14:09:20.742Z,95157.01
2018-09-09T14:11:49.532Z,95147.73
2018-09-09T14:14:18.316Z,95143.47
2018-09-09T14:16:47.099Z,95143.45
2018-09-09T14:19:15.940Z,95136.48
2018-09-09T14:21:44.755Z,95143.19
2018-09-09T14:24:14.371Z,95141.36
2018-09-09T14:26:43.357Z,95129.84
2018-09-09T14:29:12.246Z,95132.72
2018-09-09T14:31:41.171Z,95137.31
2018-09-09T14:34:10.032Z,95137.58
2018-09-09T14:36:38.966Z,95145.84
2018-09-09T14:39:09.339Z,95131.66
2018-09-09T14:41:38.111Z,95134.34
2018-09-09T14:44:07.167Z,95134.88
2018-09-09T14:46:35.957Z,95131.92
2018-09-09T14:49:04.759Z,95139.69
2018-09-09T14:51:33.599Z,95147.20
2018-09-09T14:54:02.375Z,95147.73
2018-09-09T14:56:31.167Z,95138.92
2018-09-09T14:59:00.130Z,95139.73
2018-09-09T15:01:29.326Z,95137.87
2018-09-09T15:03:58.116Z,95142.69
2018-09-09T15:06:27.269Z,95146.98
2018-09-09T15:08:56.281Z,95137.36
2018-09-09T15:11:25.068Z,95140.83
2018-09-09T15:13:53.931Z,95136.02
2018-09-09T15:16:22.721Z,95139.73
2018-09-09T15:18:53.218Z,95142.42
2018-09-09T15:21:22.033Z,95141.88
2018-09-09T15:23:50.836Z,95149.39
2018-09-09T15:26:19.658Z,95143.22
2018-09-09T15:28:48.520Z,95146.45
2018-09-09T15:31:17.419Z,95143.52
2018-09-09T15:33:46.183Z,95146.44
2018-09-09T15:36:15.065Z,95145.61
2018-09-09T15:38:43.882Z,95155.79
2018-09-09T15:41:13.457Z,95155.00
2018-09-09T15:43:42.294Z,95154.16
2018-09-09T15:46:11.091Z,95153.63
2018-09-09T15:48:39.857Z,95160.05
2018-09-09T15:51:08.619Z,95153.12
2018-09-09T15:53:37.404Z,95165.42
2018-09-09T15:56:06.185Z,95156.31
2018-09-09T15:58:34.991Z,95159.28
2018-09-09T16:01:03.864Z,95160.86
2018-09-09T16:03:32.704Z,95169.17
2018-09-09T16:06:01.477Z,95175.86
2018-09-09T16:08:30.270Z,95172.12
2018-09-09T16:10:59.119Z,95173.73
2018-09-09T16:13:27.903Z,95165.42
2018-09-09T16:15:56.678Z,95172.38
2018-09-09T16:18:25.489Z,95166.73
2018-09-09T16:20:54.262Z,95177.95
2018-09-09T16:23:23.073Z,95178.22
2018-09-09T16:25:51.958Z,95190.22
2018-09-09T16:28:20.722Z,95181.11
2018-09-09T16:30:49.497Z,95179.75
2018-09-09T16:33:18.450Z,95186.44
2018-09-09T16:35:47.285Z,95194.16
2018-09-09T16:38:16.054Z,95184.50
2018-09-09T16:40:44.827Z,95188.74
2018-09-09T16:43:14.391Z,95183.05
2018-09-09T16:45:43.160Z,95185.14
2018-09-09T16:48:11.986Z,95178.44
2018-09-09T16:50:40.776Z,95185.34
2018-09-09T16:53:09.541Z,95185.81
2018-09-09T16:55:38.303Z,95190.33
2018-09-09T16:58:07.143Z,95179.09
2018-09-09T17:00:35.981Z,95193.42
2018-09-09T17:03:04.807Z,95195.78
2018-09-09T17:05:33.694Z,95196.54
2018-09-09T17:08:02.512Z,95196.79
2018-09-09T17:10:31.315Z,95196.77
2018-09-09T17:13:00.174Z,95206.29
2018-09-09T17:15:34.872Z,95204.13
2018-09-09T17:18:03.943Z,95202.48
2018-09-09T17:20:32.726Z,95210.48
2018-09-09T17:23:02.397Z,95215.54
2018-09-09T17:25:31.247Z,95214.40
2018-09-09T17:27:59.964Z,95218.89
2018-09-09T17:30:29.272Z,95220.47
2018-09-09T17:32:58.134Z,95228.97
2018-09-09T17:35:26.948Z,95232.16
2018-09-09T17:37:55.739Z,95232.69
2018-09-09T17:40:24.878Z,95237.70
2018-09-09T17:42:53.628Z,95240.09
2018-09-09T17:45:22.483Z,95241.59
2018-09-09T17:47:51.303Z,95242.65
2018-09-09T17:50:20.050Z,95248.99
2018-09-09T17:52:48.892Z,95248.75
2018-09-09T17:55:17.943Z,95250.81
2018-09-09T17:57:46.775Z,95257.44
2018-09-09T18:00:15.627Z,95254.73
2018-09-09T18:02:44.413Z,95265.06
2018-09-09T18:05:13.452Z,95271.69
2018-09-09T18:07:42.230Z,95271.44
2018-09-09T18:10:11.025Z,95272.25
2018-09-09T18:12:39.855Z,95268.05
2018-09-09T18:15:08.774Z,95270.75
2018-09-09T18:17:37.576Z,95268.89
2018-09-09T18:20:06.518Z,95274.67
2018-09-09T18:22:35.478Z,95285.33
2018-09-09T18:25:04.350Z,95283.47
2018-09-09T18:27:33.150Z,95282.14
2018-09-09T18:30:01.920Z,95279.91
2018-09-09T18:32:30.650Z,95287.34
2018-09-09T18:34:59.595Z,95285.90
2018-09-09T18:37:28.534Z,95297.55
2018-09-09T18:39:57.343Z,95292.38
2018-09-09T18:42:26.149Z,95295.52
2018-09-09T18:44:54.978Z,95293.52
2018-09-09T18:47:23.867Z,95299.89
2018-09-09T18:49:52.818Z,95301.70
2018-09-09T18:52:21.634Z,95303.79
2018-09-09T18:54:50.475Z,95304.59
2018-09-09T18:57:19.286Z,95304.30
2018-09-09T18:59:48.092Z,95306.68
2018-09-09T19:02:16.928Z,95308.68
2018-09-09T19:04:45.816Z,95311.63
2018-09-09T19:07:14.678Z,95314.80
2018-09-09T19:09:43.487Z,95318.50
2018-09-09T19:12:12.385Z,95320.87
2018-09-09T19:14:41.595Z,95322.97
2018-09-09T19:17:10.414Z,95332.86
2018-09-09T19:19:39.264Z,95323.73
2018-09-09T19:22:08.465Z,95330.03
2018-09-09T19:24:37.380Z,95331.30
2018-09-09T19:27:06.492Z,95328.48
2018-09-09T19:29:35.395Z,95329.11
2018-09-09T19:32:04.191Z,95333.03
2018-09-09T19:34:33.004Z,95321.88
2018-09-09T19:37:01.824Z,95326.97
2018-09-09T19:39:30.683Z,95331.81
2018-09-09T19:41:59.492Z,95328.58
2018-09-09T19:44:28.275Z,95331.17
2018-09-09T19:46:57.054Z,95328.69
2018-09-09T19:49:25.887Z,95320.53
2018-09-09T19:51:54.698Z,95326.27
2018-09-09T19:54:23.539Z,95324.42
2018-09-09T19:56:52.338Z,95322.34
2018-09-09T19:59:21.094Z,95325.23
2018-09-09T20:01:49.939Z,95324.66
2018-09-09T20:04:18.798Z,95323.07
2018-09-09T20:06:47.585Z,95320.87
2018-09-09T20:09:16.366Z,95317.20
2018-09-09T20:11:45.140Z,95323.38
2018-09-09T20:14:13.954Z,95320.87
2018-09-09T20:16:42.752Z,95321.04
2018-09-09T20:19:11.620Z,95315.22
2018-09-09T20:21:40.494Z,95319.84
2018-09-09T20:24:09.316Z,95325.91
2018-09-09T20:26:38.146Z,95326.95
2018-09-09T20:29:07.072Z,95323.88
2018-09-09T20:31:36.064Z,95324.34
2018-09-09T20:34:05.003Z,95326.69
2018-09-09T20:36:33.904Z,95327.78
2018-09-09T20:39:03.936Z,95333.56
2018-09-09T20:41:32.745Z,95331.20
2018-09-09T20:44:01.544Z,95333.18
2018-09-09T20:46:31.420Z,95326.90
2018-09-09T20:49:00.265Z,95326.38
2018-09-09T20:51:29.061Z,95327.23
2018-09-09T20:53:57.862Z,95328.86
2018-09-09T20:56:26.686Z,95330.66
2018-09-09T20:58:55.599Z,95324.40
2018-09-09T21:01:24.393Z,95327.23
2018-09-09T21:03:53.192Z,95325.12
2018-09-09T21:06:23.695Z,95319.00
2018-09-09T21:08:52.521Z,95331.43
2018-09-09T21:11:21.622Z,95327.97
2018-09-09T21:13:50.421Z,95325.23
2018-09-09T21:16:19.322Z,95328.14
2018-09-09T21:18:48.136Z,95329.47
2018-09-09T21:21:16.943Z,95327.83
2018-09-09T21:23:45.780Z,95333.01
2018-09-09T21:26:14.664Z,95323.03
2018-09-09T21:28:43.607Z,95324.42
2018-09-09T21:31:12.433Z,95327.55
2018-09-09T21:33:41.353Z,95314.10
2018-09-09T21:36:10.158Z,95322.52
2018-09-09T21:38:38.943Z,95320.25
2018-09-09T21:41:07.754Z,95317.44
2018-09-09T21:43:36.585Z,95320.95
2018-09-09T21:46:05.405Z,95321.08
2018-09-09T21:48:34.182Z,95325.04
2018-09-09T21:51:02.991Z,95319.02
2018-09-09T21:53:31.747Z,95317.82
2018-09-09T21:56:00.522Z,95320.77
2018-09-09T21:58:29.290Z,95318.94
2018-09-09T22:01:03.169Z,95327.30
2018-09-09T22:03:31.984Z,95325.66
2018-09-09T22:06:00.761Z,95328.05
2018-09-09T22:08:29.522Z,95319.77
2018-09-09T22:10:58.318Z,95321.95
2018-09-09T22:13:27.131Z,95316.77
2018-09-09T22:15:55.925Z,95318.30
2018-09-09T22:18:24.706Z,95317.31
2018-09-09T22:20:53.558Z,95310.67
2018-09-09T22:23:22.380Z,95312.12
2018-09-09T22:25:51.261Z,95315.70
2018-09-09T22:28:20.036Z,95310.39
2018-09-09T22:30:48.871Z,95304.73
2018-09-09T22:33:17.655Z,95309.05
2018-09-09T22:35:46.447Z,95310.93
2018-09-09T22:38:15.272Z,95311.09
2018-09-09T22:40:44.015Z,95306.45
2018-09-09T22:43:13.003Z,95306.74
2018-09-09T22:45:42.265Z,95299.16
2018-09-09T22:48:11.762Z,95306.05
2018-09-09T22:50:40.613Z,95310.30
2018-09-09T22:53:09.677Z,95308.19
2018-09-09T22:55:38.487Z,95307.03
2018-09-09T22:58:07.244Z,95313.73
2018-09-09T23:00:36.075Z,95309.75
2018-09-09T23:03:04.890Z,95307.61
2018-09-09T23:05:33.775Z,95312.51
2018-09-09T23:08:02.732Z,95305.35
2018-09-09T23:10:31.521Z,95309.02
2018-09-09T23:13:00.406Z,95312.42
2018-09-09T23:15:29.631Z,95317.50
2018-09-09T23:17:58.460Z,95309.77
2018-09-09T23:20:27.319Z,95305.95
2018-09-09T23:22:56.358Z,95308.89
2018-09-09T23:25:25.122Z,95306.44
2018-09-09T23:27:54.123Z,95310.12
2018-09-09T23:30:22.904Z,95309.61
2018-09-09T23:32:51.699Z,95305.56
2018-09-09T23:35:20.537Z,95307.77
2018-09-09T23:37:49.504Z,95299.67
2018-09-09T23:40:18.248Z,95306.02
2018-09-09T23:42:47.023Z,95304.98
2018-09-09T23:45:15.799Z,95302.30
2018-09-09T23:47:44.575Z,95303.27
2018-09-09T23:50:13.437Z,95302.11
2018-09-09T23:52:42.240Z,95303.43
2018-09-09T23:55:11.034Z,95300.26
2018-09-09T23:57:39.825Z,95297.52
